createdAt,value
2022-11-17T00:01:50.230Z,4.68
2022-11-17T00:04:18.200Z,4.53
2022-11-17T00:06:46.156Z,5.32
2022-11-17T00:09:17.552Z,4.82
2022-11-17T00:12:03.266Z,5.00
2022-11-17T00:14:34.666Z,5.05
2022-11-17T00:17:05.689Z,4.43
2022-11-17T00:19:50.890Z,4.50
2022-11-17T00:22:18.792Z,5.22
2022-11-17T00:24:49.387Z,4.70
2022-11-17T00:27:17.362Z,4.63
2022-11-17T00:29:45.398Z,4.45
2022-11-17T00:32:38.240Z,4.20
2022-11-17T00:35:07.272Z,4.22
2022-11-17T00:37:38.213Z,4.85
2022-11-17T00:40:07.450Z,5.15
2022-11-17T00:42:35.365Z,5.72
2022-11-17T00:45:03.346Z,4.82
2022-11-17T00:47:36.569Z,4.72
2022-11-17T00:50:05.118Z,4.22
2022-11-17T00:52:33.038Z,4.85
2022-11-17T00:55:01.077Z,4.70
2022-11-17T00:57:29.065Z,5.15
2022-11-17T00:59:57.153Z,5.10
2022-11-17T01:02:25.116Z,5.35
2022-11-17T01:04:54.383Z,4.35
2022-11-17T01:07:22.999Z,5.22
2022-11-17T01:09:51.150Z,4.80
2022-11-17T01:12:19.196Z,4.50
2022-11-17T01:14:47.793Z,5.20
2022-11-17T01:17:15.769Z,4.50
2022-11-17T01:19:43.806Z,5.03
2022-11-17T01:22:13.113Z,4.45
2022-11-17T01:24:41.089Z,4.32
2022-11-17T01:27:09.191Z,4.28
2022-11-17T01:29:37.061Z,4.60
2022-11-17T01:32:05.454Z,4.50
2022-11-17T01:34:33.522Z,5.00
2022-11-17T01:37:18.919Z,4.53
2022-11-17T01:39:48.530Z,4.82
2022-11-17T01:42:20.175Z,4.15
2022-11-17T01:44:59.964Z,4.32
2022-11-17T01:47:34.061Z,4.45
2022-11-17T01:50:07.664Z,4.25
2022-11-17T01:52:38.505Z,4.75
2022-11-17T01:55:09.722Z,5.22
2022-11-17T01:57:43.770Z,4.57
2022-11-17T02:00:15.821Z,4.55
2022-11-17T02:02:46.326Z,5.47
2022-11-17T02:05:31.359Z,4.30
2022-11-17T02:08:02.091Z,5.00
2022-11-17T02:10:32.896Z,5.43
2022-11-17T02:13:01.592Z,4.63
2022-11-17T02:15:30.506Z,5.78
2022-11-17T02:18:00.722Z,4.70
2022-11-17T02:20:51.009Z,4.80
2022-11-17T02:23:47.977Z,4.95
2022-11-17T02:26:38.998Z,5.40
2022-11-17T02:29:14.394Z,5.00
2022-11-17T02:31:54.040Z,5.75
2022-11-17T02:34:39.587Z,5.07
2022-11-17T02:37:18.441Z,6.00
2022-11-17T02:39:52.667Z,4.75
2022-11-17T02:42:47.924Z,5.70
2022-11-17T02:45:21.026Z,5.88
2022-11-17T02:47:51.709Z,6.47
2022-11-17T02:50:27.866Z,7.32
2022-11-17T02:52:56.401Z,5.82
2022-11-17T02:55:24.370Z,6.70
2022-11-17T02:57:52.353Z,6.32
2022-11-17T03:00:22.033Z,5.82
2022-11-17T03:03:15.573Z,6.03
2022-11-17T03:05:57.772Z,5.60
2022-11-17T03:08:33.322Z,6.15
2022-11-17T03:11:03.709Z,6.47
2022-11-17T03:13:43.414Z,6.57
2022-11-17T03:16:22.038Z,6.53
2022-11-17T03:19:01.754Z,6.30
2022-11-17T03:21:33.652Z,6.00
2022-11-17T03:24:06.543Z,6.65
2022-11-17T03:26:37.497Z,6.10
2022-11-17T03:29:11.401Z,6.38
2022-11-17T03:31:44.052Z,5.88
2022-11-17T03:34:16.569Z,6.38
2022-11-17T03:36:49.115Z,5.80
2022-11-17T03:39:23.593Z,5.80
2022-11-17T03:42:00.811Z,5.80
2022-11-17T03:44:31.178Z,6.80
2022-11-17T03:47:03.914Z,6.80
2022-11-17T03:49:41.520Z,6.90
2022-11-17T03:52:09.619Z,6.47
2022-11-17T03:54:37.965Z,7.00
2022-11-17T03:57:09.194Z,6.50
2022-11-17T03:59:43.805Z,7.47
2022-11-17T04:02:18.216Z,5.95
2022-11-17T04:05:03.631Z,7.25
2022-11-17T04:07:31.755Z,6.50
2022-11-17T04:09:59.706Z,6.80
2022-11-17T04:12:45.591Z,6.20
2022-11-17T04:15:31.056Z,6.28
2022-11-17T04:18:00.717Z,6.15
2022-11-17T04:20:35.789Z,6.50
2022-11-17T04:23:11.333Z,6.28
2022-11-17T04:25:59.266Z,6.70
2022-11-17T04:28:40.661Z,6.72
2022-11-17T04:31:11.552Z,6.30
2022-11-17T04:33:42.403Z,6.25
2022-11-17T04:36:11.377Z,6.90
2022-11-17T04:38:42.859Z,7.07
2022-11-17T04:41:30.313Z,7.85
2022-11-17T04:43:58.639Z,6.63
2022-11-17T04:46:27.603Z,7.28
2022-11-17T04:49:00.908Z,6.90
2022-11-17T04:51:29.706Z,6.47
2022-11-17T04:53:57.946Z,6.25
2022-11-17T04:56:26.730Z,7.13
2022-11-17T04:58:55.044Z,7.82
2022-11-17T05:01:23.987Z,8.18
2022-11-17T05:03:53.853Z,7.72
2022-11-17T05:06:25.034Z,6.90
2022-11-17T05:08:55.775Z,7.90
2022-11-17T05:11:43.181Z,8.00
2022-11-17T05:14:11.920Z,7.97
2022-11-17T05:17:04.510Z,7.75
2022-11-17T05:19:38.113Z,8.00
2022-11-17T05:22:28.551Z,7.65
2022-11-17T05:24:56.072Z,7.90
2022-11-17T05:27:24.845Z,7.63
2022-11-17T05:29:53.512Z,9.05
2022-11-17T05:32:21.558Z,8.35
2022-11-17T05:34:49.507Z,9.88
2022-11-17T05:37:18.966Z,9.02
2022-11-17T05:39:46.951Z,8.80
2022-11-17T05:42:14.936Z,10.15
2022-11-17T05:44:42.824Z,8.90
2022-11-17T05:47:10.734Z,11.35
2022-11-17T05:49:38.690Z,9.52
2022-11-17T05:52:06.832Z,10.82
2022-11-17T05:54:36.078Z,10.48
2022-11-17T05:57:07.609Z,10.98
2022-11-17T05:59:41.913Z,10.55
2022-11-17T06:02:15.526Z,9.85
2022-11-17T06:04:44.392Z,10.48
2022-11-17T06:07:12.482Z,10.10
2022-11-17T06:09:43.132Z,10.55
2022-11-17T06:12:12.024Z,10.93
2022-11-17T06:14:40.231Z,11.43
2022-11-17T06:17:13.469Z,11.93
2022-11-17T06:19:50.396Z,10.20
2022-11-17T06:22:18.474Z,11.73
2022-11-17T06:24:47.941Z,11.48
2022-11-17T06:27:17.669Z,11.30
2022-11-17T06:29:49.260Z,11.88
2022-11-17T06:32:19.723Z,11.35
2022-11-17T06:34:55.699Z,11.27
2022-11-17T06:37:24.773Z,11.98
2022-11-17T06:39:54.212Z,12.70
2022-11-17T06:42:42.842Z,12.52
2022-11-17T06:45:12.137Z,11.85
2022-11-17T06:47:40.090Z,12.90
2022-11-17T06:50:08.983Z,12.82
2022-11-17T06:52:36.984Z,11.18
2022-11-17T06:55:07.646Z,13.40
2022-11-17T06:57:35.717Z,14.13
2022-11-17T07:00:06.197Z,11.93
2022-11-17T07:02:37.504Z,11.35
2022-11-17T07:05:06.258Z,12.68
2022-11-17T07:07:34.550Z,11.95
2022-11-17T07:10:02.976Z,13.40
2022-11-17T07:12:32.370Z,13.25
2022-11-17T07:15:00.545Z,11.85
2022-11-17T07:17:29.643Z,12.23
2022-11-17T07:20:00.215Z,11.93
2022-11-17T07:22:28.259Z,12.95
2022-11-17T07:24:56.362Z,11.75
2022-11-17T07:27:24.358Z,11.63
2022-11-17T07:29:53.810Z,12.90
2022-11-17T07:32:22.158Z,12.25
2022-11-17T07:34:50.250Z,12.20
2022-11-17T07:37:18.424Z,12.85
2022-11-17T07:39:46.385Z,12.32
2022-11-17T07:42:14.379Z,12.15
2022-11-17T07:44:42.323Z,13.48
2022-11-17T07:47:13.063Z,13.10
2022-11-17T07:49:41.067Z,11.73
2022-11-17T07:52:09.230Z,12.15
2022-11-17T07:54:37.441Z,11.70
2022-11-17T07:57:05.532Z,12.85
2022-11-17T07:59:33.627Z,12.10
2022-11-17T08:02:01.678Z,11.93
2022-11-17T08:04:31.218Z,10.43
2022-11-17T08:07:01.086Z,11.43
2022-11-17T08:09:34.950Z,11.45
2022-11-17T08:12:03.173Z,11.25
2022-11-17T08:14:31.145Z,11.48
2022-11-17T08:16:59.141Z,10.20
2022-11-17T08:19:27.252Z,10.68
2022-11-17T08:22:14.875Z,10.77
2022-11-17T08:25:12.263Z,10.00
2022-11-17T08:28:26.568Z,10.13
2022-11-17T08:34:48.521Z,9.48
2022-11-17T08:37:39.729Z,9.20
2022-11-17T08:40:32.278Z,9.40
2022-11-17T08:43:01.664Z,9.48
2022-11-17T08:50:23.184Z,8.70
2022-11-17T08:52:53.492Z,8.95
2022-11-17T08:55:42.181Z,9.20
2022-11-17T09:09:47.056Z,8.30
2022-11-17T09:50:14.277Z,6.18
2022-11-17T09:53:09.001Z,6.10
2022-11-17T09:55:50.113Z,6.05
2022-11-17T10:07:21.698Z,6.05
2022-11-17T10:10:00.526Z,5.25
2022-11-17T10:12:56.513Z,5.07
2022-11-17T10:15:29.891Z,5.75
2022-11-17T10:17:57.975Z,5.15
2022-11-17T10:20:26.405Z,5.20
2022-11-17T10:23:26.682Z,5.43
2022-11-17T10:25:59.407Z,4.95
2022-11-17T10:28:39.433Z,4.72
2022-11-17T10:31:19.236Z,4.97
2022-11-17T10:33:49.097Z,4.63
2022-11-17T10:36:22.008Z,4.78
2022-11-17T10:38:51.774Z,4.88
2022-11-17T10:42:28.711Z,4.82
2022-11-17T10:45:01.644Z,4.35
2022-11-17T10:47:33.580Z,4.47
2022-11-17T10:54:50.581Z,4.90
2022-11-17T11:01:37.971Z,4.80
2022-11-17T11:04:30.343Z,4.85
2022-11-17T11:07:12.314Z,4.70
2022-11-17T11:09:47.935Z,4.35
2022-11-17T11:12:30.702Z,4.22
2022-11-17T11:15:01.580Z,4.53
2022-11-17T11:17:31.314Z,4.43
2022-11-17T11:20:00.831Z,4.22
2022-11-17T11:22:36.192Z,4.38
2022-11-17T11:25:13.330Z,4.07
2022-11-17T11:28:07.707Z,4.65
2022-11-17T11:30:41.367Z,4.20
2022-11-17T11:33:24.888Z,3.80
2022-11-17T11:36:16.936Z,4.18
2022-11-17T11:38:59.125Z,3.78
2022-11-17T11:41:46.164Z,4.32
2022-11-17T11:44:40.347Z,4.07
2022-11-17T11:47:18.672Z,4.18
2022-11-17T11:49:55.625Z,4.15
2022-11-17T11:52:28.791Z,3.85
2022-11-17T11:55:00.812Z,3.90
2022-11-17T12:01:49.849Z,3.63
2022-11-17T12:04:49.598Z,4.20
2022-11-17T12:11:21.828Z,3.97
2022-11-17T12:13:54.162Z,3.78
2022-11-17T12:16:29.922Z,3.90
2022-11-17T12:19:09.154Z,3.80
2022-11-17T12:21:37.633Z,3.60
2022-11-17T12:24:25.197Z,4.00
2022-11-17T12:27:33.654Z,3.85
2022-11-17T12:30:36.021Z,3.55
2022-11-17T12:34:03.686Z,3.72
2022-11-17T12:37:08.301Z,3.78
2022-11-17T12:40:13.255Z,3.42
2022-11-17T12:43:44.145Z,3.67
2022-11-17T12:46:48.367Z,3.60
2022-11-17T12:49:39.955Z,3.53
2022-11-17T12:52:20.611Z,3.47
2022-11-17T12:55:39.574Z,3.80
2022-11-17T13:03:13.583Z,3.20
2022-11-17T13:09:44.197Z,3.63
2022-11-17T13:12:41.265Z,3.75
2022-11-17T13:20:10.695Z,3.25
2022-11-17T13:23:11.217Z,3.35
2022-11-17T13:25:56.290Z,3.38
2022-11-17T13:28:45.040Z,2.90
2022-11-17T13:31:37.149Z,3.00
2022-11-17T13:34:23.758Z,3.15
2022-11-17T13:37:11.914Z,2.95
2022-11-17T13:58:37.778Z,2.80
2022-11-17T14:02:02.934Z,2.50
2022-11-17T14:04:50.501Z,2.70
2022-11-17T14:15:19.209Z,2.70
2022-11-17T14:18:34.017Z,2.55
2022-11-17T14:25:43.651Z,3.13
2022-11-17T14:40:48.904Z,3.45
2022-11-17T14:47:53.260Z,3.25
2022-11-17T14:50:27.029Z,2.65
2022-11-17T14:52:58.466Z,2.80
2022-11-17T14:55:59.337Z,2.80
2022-11-17T14:58:39.012Z,3.10
2022-11-17T15:01:19.707Z,2.85
2022-11-17T15:04:04.174Z,2.90
2022-11-17T15:06:49.048Z,2.88
2022-11-17T15:09:19.872Z,3.42
2022-11-17T15:11:56.129Z,3.17
2022-11-17T15:14:24.563Z,3.03
2022-11-17T15:16:52.728Z,3.03
2022-11-17T15:19:20.844Z,3.38
2022-11-17T15:21:49.189Z,2.97
2022-11-17T15:24:18.080Z,3.70
2022-11-17T15:27:15.176Z,3.20
2022-11-17T15:29:59.157Z,3.10
2022-11-17T15:32:30.543Z,2.83
2022-11-17T15:35:00.784Z,3.40
2022-11-17T15:37:40.628Z,3.05
2022-11-17T15:40:24.199Z,2.70
2022-11-17T15:43:56.058Z,3.03
2022-11-17T15:46:59.330Z,3.20
2022-11-17T15:53:03.912Z,3.30
2022-11-17T16:03:27.418Z,3.00
2022-11-17T16:53:31.493Z,3.00
2022-11-17T16:56:30.028Z,2.88
2022-11-17T17:02:56.075Z,2.67
2022-11-17T17:06:10.478Z,3.50
2022-11-17T17:09:03.212Z,2.58
2022-11-17T17:12:09.527Z,2.90
2022-11-17T17:22:58.996Z,2.83
2022-11-17T17:26:48.120Z,2.60
2022-11-17T17:33:10.712Z,2.90
2022-11-17T18:40:02.430Z,2.70
2022-11-17T18:53:30.096Z,3.00
2022-11-17T19:01:25.069Z,2.63
2022-11-17T20:44:47.382Z,5.40
2022-11-17T22:08:49.112Z,7.57
2022-11-17T22:33:15.610Z,7.35
2022-11-17T23:13:45.526Z,7.05
2022-11-17T23:17:10.571Z,7.82
2022-11-17T23:20:19.964Z,7.70
2022-11-17T23:23:41.224Z,7.30
2022-11-17T23:26:52.666Z,7.72
2022-11-17T23:30:26.583Z,8.43
2022-11-17T23:34:53.517Z,7.10
2022-11-17T23:47:32.895Z,7.68
2022-11-17T23:57:35.244Z,7.57
